Gray Gables, Washington
Current Conditions -  °F | °C
As of 3:53 AM on Thursday 27 Nov 2014 (Local Time) from KHQM Reporting Station
Light Rain Light Rain  
Wind Chill: 55°   Ceiling: 700
Heat Index: 55°   Visibility: 2mi
Dew Point: 55°   Wind: 13mph
Humidity: 100%   Direction: 180°S
Pressure: 29.85"   Gusts: NA
Location:  47.0202°N, 123.878°W
Report Text: KHQM 271153Z AUTO 18011KT 2SM -RA BR OVC007 13/13 A2985 RMK AO2 RAB1057E06B47 CIG 004V009 SLP112 P0001 60025 70030 T01280128 10133 20128 57005
Loading
Personal Weather Stations






























Interactive Weather Map New forecast layout! Learn more

10-Day Weather Forecast

Advertisements
Track Severe Weather on mobile